sensor_id;sensor_type;location;lat;lon;timestamp;pressure;altitude;pressure_sealevel;temperature
80496;BMP180;69819;48.798;11.770;2024-03-02T00:00:07;96451.00;;;9.60
80496;BMP180;69819;48.798;11.770;2024-03-02T00:02:41;96480.00;;;9.60
80496;BMP180;69819;48.798;11.770;2024-03-02T00:05:08;96483.00;;;9.60
80496;BMP180;69819;48.798;11.770;2024-03-02T00:07:36;96480.00;;;9.60
80496;BMP180;69819;48.798;11.770;2024-03-02T00:10:10;96453.00;;;9.60
80496;BMP180;69819;48.798;11.770;2024-03-02T00:12:38;96467.00;;;9.60
80496;BMP180;69819;48.798;11.770;2024-03-02T00:15:40;96466.00;;;9.60
80496;BMP180;69819;48.798;11.770;2024-03-02T00:18:15;96472.00;;;9.60
80496;BMP180;69819;48.798;11.770;2024-03-02T00:20:42;96441.00;;;9.60
80496;BMP180;69819;48.798;11.770;2024-03-02T00:23:10;96446.00;;;9.60
80496;BMP180;69819;48.798;11.770;2024-03-02T00:25:47;96443.00;;;9.60
80496;BMP180;69819;48.798;11.770;2024-03-02T00:33:22;96465.00;;;9.60
80496;BMP180;69819;48.798;11.770;2024-03-02T00:35:49;96455.00;;;9.60
80496;BMP180;69819;48.798;11.770;2024-03-02T00:38:15;96466.00;;;9.60
80496;BMP180;69819;48.798;11.770;2024-03-02T00:40:45;96438.00;;;9.60
80496;BMP180;69819;48.798;11.770;2024-03-02T00:46:06;96464.00;;;9.60
80496;BMP180;69819;48.798;11.770;2024-03-02T00:48:33;96447.00;;;9.70
80496;BMP180;69819;48.798;11.770;2024-03-02T00:51:03;96442.00;;;9.60
80496;BMP180;69819;48.798;11.770;2024-03-02T00:53:33;96464.00;;;9.60
80496;BMP180;69819;48.798;11.770;2024-03-02T00:56:01;96452.00;;;9.60
80496;BMP180;69819;48.798;11.770;2024-03-02T00:58:27;96435.00;;;9.60
80496;BMP180;69819;48.798;11.770;2024-03-02T01:00:52;96448.00;;;9.60
80496;BMP180;69819;48.798;11.770;2024-03-02T01:03:18;96451.00;;;9.60
80496;BMP180;69819;48.798;11.770;2024-03-02T01:05:45;96453.00;;;9.50
80496;BMP180;69819;48.798;11.770;2024-03-02T01:08:11;96434.00;;;9.50
80496;BMP180;69819;48.798;11.770;2024-03-02T01:10:37;96446.00;;;9.50
80496;BMP180;69819;48.798;11.770;2024-03-02T01:13:03;96426.00;;;9.50
80496;BMP180;69819;48.798;11.770;2024-03-02T01:15:28;96436.00;;;9.40
80496;BMP180;69819;48.798;11.770;2024-03-02T01:17:54;96446.00;;;9.40
80496;BMP180;69819;48.798;11.770;2024-03-02T01:20:20;96453.00;;;9.40
80496;BMP180;69819;48.798;11.770;2024-03-02T01:22:47;96449.00;;;9.40
80496;BMP180;69819;48.798;11.770;2024-03-02T01:25:13;96448.00;;;9.40
80496;BMP180;69819;48.798;11.770;2024-03-02T01:27:39;96451.00;;;9.40
80496;BMP180;69819;48.798;11.770;2024-03-02T01:30:06;96414.00;;;9.40
80496;BMP180;69819;48.798;11.770;2024-03-02T01:32:32;96431.00;;;9.30
80496;BMP180;69819;48.798;11.770;2024-03-02T01:34:58;96441.00;;;9.30
80496;BMP180;69819;48.798;11.770;2024-03-02T01:37:24;96431.00;;;9.30
80496;BMP180;69819;48.798;11.770;2024-03-02T01:39:49;96450.00;;;9.30
80496;BMP180;69819;48.798;11.770;2024-03-02T01:42:15;96459.00;;;9.40
80496;BMP180;69819;48.798;11.770;2024-03-02T01:44:41;96427.00;;;9.40
80496;BMP180;69819;48.798;11.770;2024-03-02T01:47:07;96431.00;;;9.40
80496;BMP180;69819;48.798;11.770;2024-03-02T01:49:33;96438.00;;;9.40
80496;BMP180;69819;48.798;11.770;2024-03-02T01:51:59;96447.00;;;9.40
80496;BMP180;69819;48.798;11.770;2024-03-02T01:54:25;96469.00;;;9.40
80496;BMP180;69819;48.798;11.770;2024-03-02T01:56:51;96445.00;;;9.50
80496;BMP180;69819;48.798;11.770;2024-03-02T01:59:17;96451.00;;;9.40
80496;BMP180;69819;48.798;11.770;2024-03-02T02:01:43;96451.00;;;9.50
80496;BMP180;69819;48.798;11.770;2024-03-02T02:04:09;96445.00;;;9.50
80496;BMP180;69819;48.798;11.770;2024-03-02T02:06:35;96451.00;;;9.50
80496;BMP180;69819;48.798;11.770;2024-03-02T02:09:01;96446.00;;;9.50
80496;BMP180;69819;48.798;11.770;2024-03-02T02:11:26;96451.00;;;9.50
80496;BMP180;69819;48.798;11.770;2024-03-02T02:13:52;96451.00;;;9.40
80496;BMP180;69819;48.798;11.770;2024-03-02T02:16:21;96445.00;;;9.40
80496;BMP180;69819;48.798;11.770;2024-03-02T02:18:47;96411.00;;;9.40
80496;BMP180;69819;48.798;11.770;2024-03-02T02:21:12;96449.00;;;9.40
80496;BMP180;69819;48.798;11.770;2024-03-02T02:23:38;96429.00;;;9.40
80496;BMP180;69819;48.798;11.770;2024-03-02T02:26:04;96430.00;;;9.40
80496;BMP180;69819;48.798;11.770;2024-03-02T02:28:30;96420.00;;;9.40
80496;BMP180;69819;48.798;11.770;2024-03-02T02:30:56;96422.00;;;9.40
80496;BMP180;69819;48.798;11.770;2024-03-02T02:33:22;96444.00;;;9.40
80496;BMP180;69819;48.798;11.770;2024-03-02T02:35:47;96444.00;;;9.40
80496;BMP180;69819;48.798;11.770;2024-03-02T02:38:13;96427.00;;;9.40
80496;BMP180;69819;48.798;11.770;2024-03-02T02:40:39;96418.00;;;9.40
80496;BMP180;69819;48.798;11.770;2024-03-02T02:43:05;96446.00;;;9.40
80496;BMP180;69819;48.798;11.770;2024-03-02T02:45:32;96430.00;;;9.40
80496;BMP180;69819;48.798;11.770;2024-03-02T02:47:58;96434.00;;;9.40
80496;BMP180;69819;48.798;11.770;2024-03-02T02:50:23;96436.00;;;9.40
80496;BMP180;69819;48.798;11.770;2024-03-02T02:52:49;96432.00;;;9.50
80496;BMP180;69819;48.798;11.770;2024-03-02T02:55:16;96425.00;;;9.50
80496;BMP180;69819;48.798;11.770;2024-03-02T02:57:44;96419.00;;;9.50
80496;BMP180;69819;48.798;11.770;2024-03-02T03:00:13;96431.00;;;9.50
80496;BMP180;69819;48.798;11.770;2024-03-02T03:02:42;96408.00;;;9.50
80496;BMP180;69819;48.798;11.770;2024-03-02T03:05:10;96418.00;;;9.50
80496;BMP180;69819;48.798;11.770;2024-03-02T03:07:36;96425.00;;;9.60
80496;BMP180;69819;48.798;11.770;2024-03-02T03:10:04;96428.00;;;9.60
80496;BMP180;69819;48.798;11.770;2024-03-02T03:12:36;96400.00;;;9.50
80496;BMP180;69819;48.798;11.770;2024-03-02T03:15:03;96427.00;;;9.60
80496;BMP180;69819;48.798;11.770;2024-03-02T03:17:32;96413.00;;;9.60
80496;BMP180;69819;48.798;11.770;2024-03-02T03:19:58;96419.00;;;9.60
80496;BMP180;69819;48.798;11.770;2024-03-02T03:22:24;96392.00;;;9.50
80496;BMP180;69819;48.798;11.770;2024-03-02T03:24:50;96415.00;;;9.60
80496;BMP180;69819;48.798;11.770;2024-03-02T03:27:15;96419.00;;;9.60
80496;BMP180;69819;48.798;11.770;2024-03-02T03:29:41;96406.00;;;9.60
80496;BMP180;69819;48.798;11.770;2024-03-02T03:32:07;96420.00;;;9.60
80496;BMP180;69819;48.798;11.770;2024-03-02T03:34:34;96416.00;;;9.60
80496;BMP180;69819;48.798;11.770;2024-03-02T03:37:00;96431.00;;;9.60
80496;BMP180;69819;48.798;11.770;2024-03-02T03:39:26;96409.00;;;9.60
80496;BMP180;69819;48.798;11.770;2024-03-02T03:41:51;96419.00;;;9.60
80496;BMP180;69819;48.798;11.770;2024-03-02T03:44:17;96415.00;;;9.60
80496;BMP180;69819;48.798;11.770;2024-03-02T03:46:43;96407.00;;;9.60
80496;BMP180;69819;48.798;11.770;2024-03-02T03:49:08;96427.00;;;9.40
80496;BMP180;69819;48.798;11.770;2024-03-02T03:51:34;96400.00;;;9.40
80496;BMP180;69819;48.798;11.770;2024-03-02T03:54:01;96435.00;;;9.60
80496;BMP180;69819;48.798;11.770;2024-03-02T03:56:27;96415.00;;;9.60
80496;BMP180;69819;48.798;11.770;2024-03-02T03:58:52;96429.00;;;9.60
80496;BMP180;69819;48.798;11.770;2024-03-02T04:01:18;96389.00;;;9.60
80496;BMP180;69819;48.798;11.770;2024-03-02T04:03:44;96434.00;;;9.60
80496;BMP180;69819;48.798;11.770;2024-03-02T04:06:10;96421.00;;;9.60
80496;BMP180;69819;48.798;11.770;2024-03-02T04:08:36;96444.00;;;9.60
80496;BMP180;69819;48.798;11.770;2024-03-02T04:11:02;96434.00;;;9.60
80496;BMP180;69819;48.798;11.770;2024-03-02T04:13:28;96445.00;;;9.60
80496;BMP180;69819;48.798;11.770;2024-03-02T04:15:54;96427.00;;;9.60
80496;BMP180;69819;48.798;11.770;2024-03-02T04:18:20;96457.00;;;9.60
80496;BMP180;69819;48.798;11.770;2024-03-02T04:20:45;96452.00;;;9.50
80496;BMP180;69819;48.798;11.770;2024-03-02T04:23:11;96430.00;;;9.50
80496;BMP180;69819;48.798;11.770;2024-03-02T04:25:37;96453.00;;;9.50
80496;BMP180;69819;48.798;11.770;2024-03-02T04:28:03;96461.00;;;9.50
80496;BMP180;69819;48.798;11.770;2024-03-02T04:30:28;96457.00;;;9.50
80496;BMP180;69819;48.798;11.770;2024-03-02T04:32:54;96494.00;;;9.30
80496;BMP180;69819;48.798;11.770;2024-03-02T04:35:20;96438.00;;;9.50
80496;BMP180;69819;48.798;11.770;2024-03-02T04:37:46;96452.00;;;9.50
80496;BMP180;69819;48.798;11.770;2024-03-02T04:40:12;96466.00;;;9.40
80496;BMP180;69819;48.798;11.770;2024-03-02T04:42:38;96452.00;;;9.40
80496;BMP180;69819;48.798;11.770;2024-03-02T04:45:04;96480.00;;;9.40
80496;BMP180;69819;48.798;11.770;2024-03-02T04:47:30;96472.00;;;9.40
80496;BMP180;69819;48.798;11.770;2024-03-02T04:49:56;96459.00;;;9.40
80496;BMP180;69819;48.798;11.770;2024-03-02T04:52:21;96462.00;;;9.40
80496;BMP180;69819;48.798;11.770;2024-03-02T04:54:47;96462.00;;;9.40
80496;BMP180;69819;48.798;11.770;2024-03-02T04:57:31;96485.00;;;9.40
80496;BMP180;69819;48.798;11.770;2024-03-02T04:59:57;96469.00;;;9.40
80496;BMP180;69819;48.798;11.770;2024-03-02T05:02:22;96493.00;;;9.30
80496;BMP180;69819;48.798;11.770;2024-03-02T05:04:48;96486.00;;;9.30
80496;BMP180;69819;48.798;11.770;2024-03-02T05:07:14;96489.00;;;9.30
80496;BMP180;69819;48.798;11.770;2024-03-02T05:09:40;96500.00;;;9.30
80496;BMP180;69819;48.798;11.770;2024-03-02T05:12:06;96483.00;;;9.30
80496;BMP180;69819;48.798;11.770;2024-03-02T05:14:56;96469.00;;;9.30
80496;BMP180;69819;48.798;11.770;2024-03-02T05:17:22;96471.00;;;9.40
80496;BMP180;69819;48.798;11.770;2024-03-02T05:19:47;96494.00;;;9.40
80496;BMP180;69819;48.798;11.770;2024-03-02T05:22:13;96499.00;;;9.40
80496;BMP180;69819;48.798;11.770;2024-03-02T05:24:39;96490.00;;;9.40
80496;BMP180;69819;48.798;11.770;2024-03-02T05:27:05;96457.00;;;9.40
80496;BMP180;69819;48.798;11.770;2024-03-02T05:29:31;96494.00;;;9.40
80496;BMP180;69819;48.798;11.770;2024-03-02T05:31:57;96464.00;;;9.40
80496;BMP180;69819;48.798;11.770;2024-03-02T05:34:23;96474.00;;;9.40
80496;BMP180;69819;48.798;11.770;2024-03-02T05:36:49;96492.00;;;9.40
80496;BMP180;69819;48.798;11.770;2024-03-02T05:39:14;96501.00;;;9.50
80496;BMP180;69819;48.798;11.770;2024-03-02T05:41:41;96498.00;;;9.40
80496;BMP180;69819;48.798;11.770;2024-03-02T05:44:07;96485.00;;;9.50
80496;BMP180;69819;48.798;11.770;2024-03-02T05:46:32;96494.00;;;9.50
80496;BMP180;69819;48.798;11.770;2024-03-02T05:49:00;96503.00;;;9.40
80496;BMP180;69819;48.798;11.770;2024-03-02T05:51:26;96470.00;;;9.40
80496;BMP180;69819;48.798;11.770;2024-03-02T05:53:52;96489.00;;;9.40
80496;BMP180;69819;48.798;11.770;2024-03-02T05:56:18;96492.00;;;9.40
80496;BMP180;69819;48.798;11.770;2024-03-02T05:58:43;96473.00;;;9.40
80496;BMP180;69819;48.798;11.770;2024-03-02T06:01:23;96476.00;;;9.40
80496;BMP180;69819;48.798;11.770;2024-03-02T06:03:55;96493.00;;;9.40
80496;BMP180;69819;48.798;11.770;2024-03-02T06:06:22;96505.00;;;9.40
80496;BMP180;69819;48.798;11.770;2024-03-02T06:08:48;96502.00;;;9.40
80496;BMP180;69819;48.798;11.770;2024-03-02T06:11:14;96467.00;;;9.30
80496;BMP180;69819;48.798;11.770;2024-03-02T06:13:40;96497.00;;;9.30
80496;BMP180;69819;48.798;11.770;2024-03-02T06:16:06;96502.00;;;9.30
80496;BMP180;69819;48.798;11.770;2024-03-02T06:18:32;96515.00;;;9.30
80496;BMP180;69819;48.798;11.770;2024-03-02T06:20:57;96480.00;;;9.30
80496;BMP180;69819;48.798;11.770;2024-03-02T06:23:23;96506.00;;;9.30
80496;BMP180;69819;48.798;11.770;2024-03-02T06:25:49;96504.00;;;9.30
80496;BMP180;69819;48.798;11.770;2024-03-02T06:28:15;96501.00;;;9.20
80496;BMP180;69819;48.798;11.770;2024-03-02T06:30:41;96508.00;;;9.30
80496;BMP180;69819;48.798;11.770;2024-03-02T06:33:09;96491.00;;;9.30
80496;BMP180;69819;48.798;11.770;2024-03-02T06:35:35;96483.00;;;9.30
80496;BMP180;69819;48.798;11.770;2024-03-02T06:38:01;96508.00;;;9.30
80496;BMP180;69819;48.798;11.770;2024-03-02T06:40:27;96491.00;;;9.30
80496;BMP180;69819;48.798;11.770;2024-03-02T06:42:53;96514.00;;;9.30
80496;BMP180;69819;48.798;11.770;2024-03-02T06:45:19;96476.00;;;9.30
80496;BMP180;69819;48.798;11.770;2024-03-02T06:47:45;96499.00;;;9.30
80496;BMP180;69819;48.798;11.770;2024-03-02T06:50:11;96485.00;;;9.30
80496;BMP180;69819;48.798;11.770;2024-03-02T06:52:37;96518.00;;;9.30
80496;BMP180;69819;48.798;11.770;2024-03-02T06:55:03;96505.00;;;9.30
80496;BMP180;69819;48.798;11.770;2024-03-02T06:57:30;96512.00;;;9.40
80496;BMP180;69819;48.798;11.770;2024-03-02T06:59:56;96507.00;;;9.40
80496;BMP180;69819;48.798;11.770;2024-03-02T07:02:25;96488.00;;;9.40
80496;BMP180;69819;48.798;11.770;2024-03-02T07:04:54;96511.00;;;9.50
80496;BMP180;69819;48.798;11.770;2024-03-02T07:07:20;96506.00;;;9.50
80496;BMP180;69819;48.798;11.770;2024-03-02T07:09:46;96506.00;;;9.50
80496;BMP180;69819;48.798;11.770;2024-03-02T07:12:13;96507.00;;;9.60
80496;BMP180;69819;48.798;11.770;2024-03-02T07:14:39;96504.00;;;9.60
80496;BMP180;69819;48.798;11.770;2024-03-02T07:17:37;96478.00;;;9.60
80496;BMP180;69819;48.798;11.770;2024-03-02T07:20:03;96458.00;;;9.60
80496;BMP180;69819;48.798;11.770;2024-03-02T07:22:29;96504.00;;;9.70
80496;BMP180;69819;48.798;11.770;2024-03-02T07:24:55;96512.00;;;9.70
80496;BMP180;69819;48.798;11.770;2024-03-02T07:27:21;96477.00;;;9.60
80496;BMP180;69819;48.798;11.770;2024-03-02T07:29:47;96519.00;;;9.80
80496;BMP180;69819;48.798;11.770;2024-03-02T07:32:13;96516.00;;;9.90
80496;BMP180;69819;48.798;11.770;2024-03-02T07:34:38;96524.00;;;10.00
80496;BMP180;69819;48.798;11.770;2024-03-02T07:37:05;96528.00;;;10.10
80496;BMP180;69819;48.798;11.770;2024-03-02T07:39:31;96530.00;;;10.20
80496;BMP180;69819;48.798;11.770;2024-03-02T07:41:57;96538.00;;;10.30
80496;BMP180;69819;48.798;11.770;2024-03-02T07:44:23;96544.00;;;10.30
80496;BMP180;69819;48.798;11.770;2024-03-02T07:46:49;96544.00;;;10.30
80496;BMP180;69819;48.798;11.770;2024-03-02T07:49:18;96539.00;;;10.40
80496;BMP180;69819;48.798;11.770;2024-03-02T07:51:45;96543.00;;;10.40
80496;BMP180;69819;48.798;11.770;2024-03-02T07:54:10;96519.00;;;10.50
80496;BMP180;69819;48.798;11.770;2024-03-02T07:56:36;96560.00;;;10.50
80496;BMP180;69819;48.798;11.770;2024-03-02T07:59:03;96534.00;;;10.50
80496;BMP180;69819;48.798;11.770;2024-03-02T08:01:30;96566.00;;;10.60
80496;BMP180;69819;48.798;11.770;2024-03-02T08:03:58;96556.00;;;10.60
80496;BMP180;69819;48.798;11.770;2024-03-02T08:06:28;96561.00;;;10.60
80496;BMP180;69819;48.798;11.770;2024-03-02T08:08:55;96562.00;;;10.70
80496;BMP180;69819;48.798;11.770;2024-03-02T08:11:21;96563.00;;;10.70
80496;BMP180;69819;48.798;11.770;2024-03-02T08:13:48;96570.00;;;10.70
80496;BMP180;69819;48.798;11.770;2024-03-02T08:16:18;96560.00;;;10.70
80496;BMP180;69819;48.798;11.770;2024-03-02T08:18:48;96551.00;;;10.80
80496;BMP180;69819;48.798;11.770;2024-03-02T08:21:14;96550.00;;;10.80
80496;BMP180;69819;48.798;11.770;2024-03-02T08:23:42;96583.00;;;10.80
80496;BMP180;69819;48.798;11.770;2024-03-02T08:26:09;96476.00;;;10.90
80496;BMP180;69819;48.798;11.770;2024-03-02T08:28:36;96580.00;;;10.90
80496;BMP180;69819;48.798;11.770;2024-03-02T08:31:03;96578.00;;;10.90
80496;BMP180;69819;48.798;11.770;2024-03-02T08:33:29;96585.00;;;11.00
80496;BMP180;69819;48.798;11.770;2024-03-02T08:35:56;96564.00;;;11.00
80496;BMP180;69819;48.798;11.770;2024-03-02T08:38:22;96538.00;;;11.10
80496;BMP180;69819;48.798;11.770;2024-03-02T08:40:50;96549.00;;;11.10
80496;BMP180;69819;48.798;11.770;2024-03-02T08:43:16;96583.00;;;10.90
80496;BMP180;69819;48.798;11.770;2024-03-02T08:45:42;96579.00;;;11.10
80496;BMP180;69819;48.798;11.770;2024-03-02T08:48:08;96585.00;;;11.20
80496;BMP180;69819;48.798;11.770;2024-03-02T08:50:35;96590.00;;;11.20
80496;BMP180;69819;48.798;11.770;2024-03-02T08:53:01;96592.00;;;11.20
80496;BMP180;69819;48.798;11.770;2024-03-02T08:55:26;96573.00;;;11.20
80496;BMP180;69819;48.798;11.770;2024-03-02T08:57:52;96583.00;;;11.30
80496;BMP180;69819;48.798;11.770;2024-03-02T09:00:19;96574.00;;;11.30
80496;BMP180;69819;48.798;11.770;2024-03-02T09:02:45;96587.00;;;11.40
80496;BMP180;69819;48.798;11.770;2024-03-02T09:05:11;96591.00;;;11.40
80496;BMP180;69819;48.798;11.770;2024-03-02T09:07:37;96599.00;;;11.50
80496;BMP180;69819;48.798;11.770;2024-03-02T09:10:05;96588.00;;;11.50
80496;BMP180;69819;48.798;11.770;2024-03-02T09:12:32;96602.00;;;11.50
80496;BMP180;69819;48.798;11.770;2024-03-02T09:14:59;96571.00;;;11.60
80496;BMP180;69819;48.798;11.770;2024-03-02T09:17:25;96576.00;;;11.60
80496;BMP180;69819;48.798;11.770;2024-03-02T09:19:51;96590.00;;;11.70
80496;BMP180;69819;48.798;11.770;2024-03-02T09:22:19;96589.00;;;11.70
80496;BMP180;69819;48.798;11.770;2024-03-02T09:24:44;96561.00;;;11.70
80496;BMP180;69819;48.798;11.770;2024-03-02T09:27:11;96589.00;;;11.80
80496;BMP180;69819;48.798;11.770;2024-03-02T09:29:37;96581.00;;;11.80
80496;BMP180;69819;48.798;11.770;2024-03-02T09:32:03;96575.00;;;11.80
80496;BMP180;69819;48.798;11.770;2024-03-02T09:34:29;96592.00;;;11.80
80496;BMP180;69819;48.798;11.770;2024-03-02T09:36:55;96598.00;;;11.90
80496;BMP180;69819;48.798;11.770;2024-03-02T09:39:21;96588.00;;;11.90
80496;BMP180;69819;48.798;11.770;2024-03-02T09:41:48;96573.00;;;11.90
80496;BMP180;69819;48.798;11.770;2024-03-02T09:44:14;96596.00;;;12.00
80496;BMP180;69819;48.798;11.770;2024-03-02T09:46:40;96588.00;;;12.00
80496;BMP180;69819;48.798;11.770;2024-03-02T09:49:12;96598.00;;;12.00
80496;BMP180;69819;48.798;11.770;2024-03-02T09:51:38;96576.00;;;12.10
80496;BMP180;69819;48.798;11.770;2024-03-02T09:54:07;96594.00;;;12.20
80496;BMP180;69819;48.798;11.770;2024-03-02T09:56:33;96588.00;;;12.30
80496;BMP180;69819;48.798;11.770;2024-03-02T09:58:59;96588.00;;;12.40
80496;BMP180;69819;48.798;11.770;2024-03-02T10:01:25;96583.00;;;12.50
80496;BMP180;69819;48.798;11.770;2024-03-02T10:03:51;96569.00;;;12.70
80496;BMP180;69819;48.798;11.770;2024-03-02T10:06:23;96586.00;;;12.80
80496;BMP180;69819;48.798;11.770;2024-03-02T10:08:50;96578.00;;;12.90
80496;BMP180;69819;48.798;11.770;2024-03-02T10:11:31;96576.00;;;13.00
80496;BMP180;69819;48.798;11.770;2024-03-02T10:14:12;96582.00;;;13.20
80496;BMP180;69819;48.798;11.770;2024-03-02T10:16:41;96576.00;;;13.40
80496;BMP180;69819;48.798;11.770;2024-03-02T10:19:25;96588.00;;;13.60
80496;BMP180;69819;48.798;11.770;2024-03-02T10:21:54;96565.00;;;13.90
80496;BMP180;69819;48.798;11.770;2024-03-02T10:24:22;96583.00;;;14.00
80496;BMP180;69819;48.798;11.770;2024-03-02T10:26:49;96570.00;;;14.10
80496;BMP180;69819;48.798;11.770;2024-03-02T10:29:15;96584.00;;;14.30
80496;BMP180;69819;48.798;11.770;2024-03-02T10:31:45;96561.00;;;14.30
80496;BMP180;69819;48.798;11.770;2024-03-02T10:34:13;96575.00;;;14.40
80496;BMP180;69819;48.798;11.770;2024-03-02T10:36:44;96576.00;;;14.40
80496;BMP180;69819;48.798;11.770;2024-03-02T10:39:14;96540.00;;;14.50
80496;BMP180;69819;48.798;11.770;2024-03-02T10:41:40;96579.00;;;14.50
80496;BMP180;69819;48.798;11.770;2024-03-02T10:44:09;96563.00;;;14.40
80496;BMP180;69819;48.798;11.770;2024-03-02T10:46:38;96558.00;;;14.40
80496;BMP180;69819;48.798;11.770;2024-03-02T10:49:05;96550.00;;;14.30
80496;BMP180;69819;48.798;11.770;2024-03-02T10:51:33;96560.00;;;14.30
80496;BMP180;69819;48.798;11.770;2024-03-02T10:54:03;96541.00;;;14.20
80496;BMP180;69819;48.798;11.770;2024-03-02T10:56:40;96563.00;;;14.20
80496;BMP180;69819;48.798;11.770;2024-03-02T10:59:36;96531.00;;;14.00
80496;BMP180;69819;48.798;11.770;2024-03-02T11:02:06;96552.00;;;14.00
80496;BMP180;69819;48.798;11.770;2024-03-02T11:04:34;96562.00;;;14.00
80496;BMP180;69819;48.798;11.770;2024-03-02T11:07:04;96549.00;;;13.90
80496;BMP180;69819;48.798;11.770;2024-03-02T11:09:34;96560.00;;;13.90
80496;BMP180;69819;48.798;11.770;2024-03-02T11:14:42;96541.00;;;13.70
80496;BMP180;69819;48.798;11.770;2024-03-02T11:17:14;96543.00;;;13.70
80496;BMP180;69819;48.798;11.770;2024-03-02T11:19:44;96536.00;;;13.70
80496;BMP180;69819;48.798;11.770;2024-03-02T11:22:12;96534.00;;;13.80
80496;BMP180;69819;48.798;11.770;2024-03-02T11:24:38;96529.00;;;13.80
80496;BMP180;69819;48.798;11.770;2024-03-02T11:27:06;96514.00;;;13.80
80496;BMP180;69819;48.798;11.770;2024-03-02T11:32:20;96510.00;;;14.00
80496;BMP180;69819;48.798;11.770;2024-03-02T11:34:49;96489.00;;;14.10
80496;BMP180;69819;48.798;11.770;2024-03-02T11:37:19;96508.00;;;14.10
80496;BMP180;69819;48.798;11.770;2024-03-02T11:39:51;96484.00;;;14.10
80496;BMP180;69819;48.798;11.770;2024-03-02T11:42:18;96488.00;;;14.00
80496;BMP180;69819;48.798;11.770;2024-03-02T11:44:48;96475.00;;;14.00
80496;BMP180;69819;48.798;11.770;2024-03-02T11:47:17;96465.00;;;13.90
80496;BMP180;69819;48.798;11.770;2024-03-02T11:49:46;96473.00;;;13.90
80496;BMP180;69819;48.798;11.770;2024-03-02T11:52:15;96474.00;;;13.80
80496;BMP180;69819;48.798;11.770;2024-03-02T11:54:46;96464.00;;;13.80
80496;BMP180;69819;48.798;11.770;2024-03-02T11:57:23;96461.00;;;13.80
80496;BMP180;69819;48.798;11.770;2024-03-02T11:59:49;96462.00;;;13.90
80496;BMP180;69819;48.798;11.770;2024-03-02T12:02:20;96434.00;;;13.90
80496;BMP180;69819;48.798;11.770;2024-03-02T12:04:48;96454.00;;;14.00
80496;BMP180;69819;48.798;11.770;2024-03-02T12:07:23;96421.00;;;14.00
80496;BMP180;69819;48.798;11.770;2024-03-02T12:10:09;96455.00;;;14.00
80496;BMP180;69819;48.798;11.770;2024-03-02T12:12:35;96445.00;;;14.00
80496;BMP180;69819;48.798;11.770;2024-03-02T12:15:01;96443.00;;;14.00
80496;BMP180;69819;48.798;11.770;2024-03-02T12:17:27;96422.00;;;14.00
80496;BMP180;69819;48.798;11.770;2024-03-02T12:19:52;96443.00;;;14.00
80496;BMP180;69819;48.798;11.770;2024-03-02T12:22:19;96418.00;;;14.00
80496;BMP180;69819;48.798;11.770;2024-03-02T12:24:45;96428.00;;;14.00
80496;BMP180;69819;48.798;11.770;2024-03-02T12:27:13;96430.00;;;14.00
80496;BMP180;69819;48.798;11.770;2024-03-02T12:29:40;96432.00;;;14.00
80496;BMP180;69819;48.798;11.770;2024-03-02T12:32:07;96425.00;;;14.00
80496;BMP180;69819;48.798;11.770;2024-03-02T12:34:32;96423.00;;;14.00
80496;BMP180;69819;48.798;11.770;2024-03-02T12:36:58;96407.00;;;14.00
80496;BMP180;69819;48.798;11.770;2024-03-02T12:39:24;96394.00;;;14.00
80496;BMP180;69819;48.798;11.770;2024-03-02T12:41:51;96399.00;;;14.00
80496;BMP180;69819;48.798;11.770;2024-03-02T12:44:17;96396.00;;;14.00
80496;BMP180;69819;48.798;11.770;2024-03-02T12:46:44;96388.00;;;14.00
80496;BMP180;69819;48.798;11.770;2024-03-02T12:49:13;96410.00;;;14.00
80496;BMP180;69819;48.798;11.770;2024-03-02T12:51:41;96405.00;;;14.10
80496;BMP180;69819;48.798;11.770;2024-03-02T12:54:09;96404.00;;;14.10
80496;BMP180;69819;48.798;11.770;2024-03-02T12:56:40;96370.00;;;14.10
80496;BMP180;69819;48.798;11.770;2024-03-02T12:59:21;96388.00;;;14.10
80496;BMP180;69819;48.798;11.770;2024-03-02T13:01:53;96423.00;;;14.10
80496;BMP180;69819;48.798;11.770;2024-03-02T13:04:28;96393.00;;;14.10
80496;BMP180;69819;48.798;11.770;2024-03-02T13:06:55;96376.00;;;14.20
80496;BMP180;69819;48.798;11.770;2024-03-02T13:09:23;96380.00;;;14.20
80496;BMP180;69819;48.798;11.770;2024-03-02T13:11:49;96391.00;;;14.20
80496;BMP180;69819;48.798;11.770;2024-03-02T13:14:15;96376.00;;;14.20
80496;BMP180;69819;48.798;11.770;2024-03-02T13:16:42;96372.00;;;14.20
80496;BMP180;69819;48.798;11.770;2024-03-02T13:19:11;96372.00;;;14.20
80496;BMP180;69819;48.798;11.770;2024-03-02T13:21:37;96385.00;;;14.30
80496;BMP180;69819;48.798;11.770;2024-03-02T13:24:05;96358.00;;;14.30
80496;BMP180;69819;48.798;11.770;2024-03-02T13:26:31;96375.00;;;14.30
80496;BMP180;69819;48.798;11.770;2024-03-02T13:28:57;96356.00;;;14.30
80496;BMP180;69819;48.798;11.770;2024-03-02T13:31:22;96345.00;;;14.30
80496;BMP180;69819;48.798;11.770;2024-03-02T13:33:48;96355.00;;;14.30
80496;BMP180;69819;48.798;11.770;2024-03-02T13:36:14;96351.00;;;14.30
80496;BMP180;69819;48.798;11.770;2024-03-02T13:38:40;96352.00;;;14.40
80496;BMP180;69819;48.798;11.770;2024-03-02T13:41:06;96332.00;;;14.40
80496;BMP180;69819;48.798;11.770;2024-03-02T13:43:32;96334.00;;;14.40
80496;BMP180;69819;48.798;11.770;2024-03-02T13:46:04;96325.00;;;14.40
80496;BMP180;69819;48.798;11.770;2024-03-02T13:48:29;96349.00;;;14.40
80496;BMP180;69819;48.798;11.770;2024-03-02T13:50:57;96345.00;;;14.40
80496;BMP180;69819;48.798;11.770;2024-03-02T13:53:23;96347.00;;;14.40
80496;BMP180;69819;48.798;11.770;2024-03-02T13:55:49;96352.00;;;14.50
80496;BMP180;69819;48.798;11.770;2024-03-02T13:58:15;96338.00;;;14.50
80496;BMP180;69819;48.798;11.770;2024-03-02T14:00:41;96318.00;;;14.50
80496;BMP180;69819;48.798;11.770;2024-03-02T14:03:07;96332.00;;;14.60
80496;BMP180;69819;48.798;11.770;2024-03-02T14:05:33;96322.00;;;14.60
80496;BMP180;69819;48.798;11.770;2024-03-02T14:07:59;96332.00;;;14.50
80496;BMP180;69819;48.798;11.770;2024-03-02T14:10:26;96331.00;;;14.50
80496;BMP180;69819;48.798;11.770;2024-03-02T14:12:53;96330.00;;;14.40
80496;BMP180;69819;48.798;11.770;2024-03-02T14:15:21;96318.00;;;14.40
80496;BMP180;69819;48.798;11.770;2024-03-02T14:17:47;96311.00;;;14.40